Time;durP1;ratioP1;P1;durP2;ratioP2;P2;SDS_P1;SDS_P2;PMS_P1;PMS_P2;Temp;Humidity;BMP_temperature;BMP_pressure;BME280_temperature;BME280_humidity;BME280_pressure;Samples;Min_cycle;Max_cycle;Signal;HPM_P1;HPM_P2
2023/10/26 00:02:20;;;;;;;10.83;9.77;;;10.40;99.90;;;;;;5011676;28;20491;-64
2023/10/26 00:04:47;;;;;;;12.43;9.47;;;10.50;99.90;;;;;;5010386;28;20476;-64
2023/10/26 00:07:15;;;;;;;11.93;10.70;;;10.40;99.90;;;;;;5013494;28;20499;-64
2023/10/26 00:09:43;;;;;;;12.20;10.90;;;10.50;99.90;;;;;;5007440;28;20508;-64
2023/10/26 00:12:11;;;;;;;12.03;10.20;;;10.40;99.90;;;;;;5014569;28;20538;-63
2023/10/26 00:14:39;;;;;;;11.47;10.27;;;10.40;99.90;;;;;;5007236;28;20475;-64
2023/10/26 00:17:08;;;;;;;12.40;10.50;;;10.40;99.90;;;;;;5008773;28;20561;-64
2023/10/26 00:19:38;;;;;;;11.43;10.23;;;10.40;99.90;;;;;;5008849;28;20546;-64
2023/10/26 00:22:05;;;;;;;12.40;10.53;;;10.40;99.90;;;;;;5006751;28;20491;-64
2023/10/26 00:24:35;;;;;;;11.63;10.43;;;10.30;99.90;;;;;;5007681;28;20534;-64
2023/10/26 00:27:03;;;;;;;12.87;9.87;;;10.40;99.90;;;;;;5018842;28;20987;-63
2023/10/26 00:29:31;;;;;;;10.57;9.30;;;10.30;99.90;;;;;;5018226;28;20499;-63
2023/10/26 00:31:59;;;;;;;14.87;9.43;;;10.30;99.90;;;;;;5007704;28;21102;-64
2023/10/26 00:34:27;;;;;;;13.07;11.10;;;10.30;99.90;;;;;;5007374;28;20467;-64
2023/10/26 00:36:56;;;;;;;10.80;9.70;;;10.30;99.90;;;;;;5008831;28;20476;-64
2023/10/26 00:39:24;;;;;;;13.10;9.60;;;10.30;99.90;;;;;;5008752;28;20578;-63
2023/10/26 00:41:53;;;;;;;10.93;9.03;;;10.30;99.90;;;;;;5006182;28;20507;-64
2023/10/26 00:44:21;;;;;;;11.70;9.90;;;10.30;99.90;;;;;;5007592;28;20471;-64
2023/10/26 00:46:50;;;;;;;10.70;9.40;;;10.30;99.90;;;;;;5006922;28;20602;-64
2023/10/26 00:49:18;;;;;;;13.40;9.80;;;10.30;99.90;;;;;;5008152;28;20618;-64
2023/10/26 00:51:51;;;;;;;14.63;10.77;;;10.30;99.90;;;;;;5008301;28;20515;-64
2023/10/26 00:54:21;;;;;;;11.87;10.63;;;10.20;99.90;;;;;;5007900;28;20486;-64
2023/10/26 00:56:51;;;;;;;11.40;10.20;;;10.20;99.90;;;;;;5009418;28;20858;-64
2023/10/26 00:59:19;;;;;;;11.07;9.97;;;10.20;99.90;;;;;;5007564;28;20878;-64
2023/10/26 01:01:49;;;;;;;15.30;11.00;;;10.20;99.90;;;;;;5006241;28;20494;-64
2023/10/26 01:04:17;;;;;;;12.20;10.50;;;10.20;99.90;;;;;;5010315;28;20499;-64
2023/10/26 01:06:45;;;;;;;13.27;10.60;;;10.20;99.90;;;;;;5003094;28;20478;-64
2023/10/26 01:09:14;;;;;;;13.50;10.60;;;10.20;99.90;;;;;;5009890;28;21085;-63
2023/10/26 01:11:44;;;;;;;11.03;9.53;;;10.20;99.90;;;;;;5015996;28;20484;-64
2023/10/26 01:14:12;;;;;;;13.30;10.37;;;10.20;99.90;;;;;;5014427;28;20475;-63
2023/10/26 01:16:40;;;;;;;12.40;10.00;;;10.20;99.90;;;;;;5005760;28;20525;-64
2023/10/26 01:19:09;;;;;;;12.80;11.30;;;10.10;99.90;;;;;;5013226;28;20590;-64
2023/10/26 01:21:50;;;;;;;13.40;11.10;;;10.10;99.90;;;;;;5017257;28;20484;-63
2023/10/26 01:24:18;;;;;;;12.27;10.83;;;10.10;99.90;;;;;;5018198;28;20582;-63
2023/10/26 01:26:46;;;;;;;14.93;11.77;;;10.10;99.90;;;;;;5019336;28;20992;-63
2023/10/26 01:29:14;;;;;;;16.33;11.77;;;10.10;99.90;;;;;;5018916;28;20607;-63
2023/10/26 01:31:42;;;;;;;13.73;10.63;;;10.10;99.90;;;;;;5017118;28;20582;-63
2023/10/26 01:34:10;;;;;;;11.63;10.43;;;10.10;99.90;;;;;;5009984;28;20961;-64
2023/10/26 01:36:38;;;;;;;12.67;10.63;;;10.00;99.90;;;;;;5009179;28;21059;-64
2023/10/26 01:39:07;;;;;;;12.57;10.90;;;10.00;99.90;;;;;;5009750;28;20700;-63
2023/10/26 01:41:35;;;;;;;12.40;10.53;;;10.00;99.90;;;;;;5003730;28;20491;-63
2023/10/26 01:44:04;;;;;;;15.20;12.50;;;10.00;99.90;;;;;;5008088;28;20464;-63
2023/10/26 01:46:32;;;;;;;12.93;10.90;;;10.00;99.90;;;;;;5005900;28;21001;-64
2023/10/26 01:49:00;;;;;;;21.87;13.90;;;10.00;99.90;;;;;;5009345;28;21034;-63
2023/10/26 01:51:29;;;;;;;15.40;10.80;;;10.00;99.90;;;;;;5012325;28;20495;-64
2023/10/26 01:53:57;;;;;;;13.07;11.17;;;10.00;99.90;;;;;;5012494;28;20475;-64
2023/10/26 01:56:26;;;;;;;13.40;10.60;;;10.00;99.90;;;;;;5005311;28;21031;-64
2023/10/26 01:58:54;;;;;;;13.20;11.23;;;10.00;99.90;;;;;;5006691;28;20491;-64
2023/10/26 02:01:22;;;;;;;14.07;11.70;;;9.90;99.90;;;;;;5005078;28;20484;-64
2023/10/26 02:03:50;;;;;;;12.03;10.73;;;10.00;99.90;;;;;;5009963;28;20478;-63
2023/10/26 02:06:18;;;;;;;11.50;10.27;;;10.00;99.90;;;;;;5009414;28;20558;-63
2023/10/26 02:08:47;;;;;;;13.07;10.93;;;10.00;99.90;;;;;;5005815;28;20495;-64
2023/10/26 02:11:15;;;;;;;11.30;10.10;;;10.00;99.90;;;;;;5006768;28;20491;-63
2023/10/26 02:13:44;;;;;;;12.63;10.43;;;10.00;99.90;;;;;;5011231;28;20471;-64
2023/10/26 02:16:13;;;;;;;13.10;10.60;;;10.00;99.90;;;;;;5010815;28;20502;-63
2023/10/26 02:18:44;;;;;;;13.20;11.50;;;10.00;99.90;;;;;;5011980;28;20586;-63
2023/10/26 02:21:13;;;;;;;11.43;10.23;;;10.00;99.90;;;;;;5015054;28;21011;-63
2023/10/26 02:23:41;;;;;;;12.47;10.33;;;10.00;99.90;;;;;;5007761;28;20475;-63
2023/10/26 02:26:09;;;;;;;13.07;11.67;;;10.00;99.90;;;;;;5008524;28;20559;-63
2023/10/26 02:28:37;;;;;;;11.87;10.67;;;10.00;99.90;;;;;;5008452;28;20535;-63
2023/10/26 02:31:07;;;;;;;12.97;11.13;;;10.00;99.90;;;;;;5002029;28;20487;-64
2023/10/26 02:33:35;;;;;;;12.07;10.33;;;10.00;99.90;;;;;;5018226;28;20508;-63
2023/10/26 02:36:04;;;;;;;12.10;10.80;;;10.00;99.90;;;;;;5015491;28;20480;-63
2023/10/26 02:38:32;;;;;;;13.43;11.50;;;10.00;99.90;;;;;;5013999;28;20491;-64
2023/10/26 02:41:04;;;;;;;13.60;11.00;;;10.00;99.90;;;;;;5015629;28;20569;-63
2023/10/26 02:43:32;;;;;;;13.97;11.13;;;10.00;99.90;;;;;;5012924;28;20565;-64
2023/10/26 02:46:01;;;;;;;11.57;10.37;;;10.00;99.90;;;;;;5014511;28;20467;-64
2023/10/26 02:48:31;;;;;;;13.50;11.50;;;10.00;99.90;;;;;;5016307;28;20972;-63
2023/10/26 02:50:59;;;;;;;12.77;11.33;;;10.00;99.90;;;;;;5016522;28;20487;-63
2023/10/26 02:53:27;;;;;;;13.60;11.30;;;10.00;99.90;;;;;;5016835;28;20546;-64
2023/10/26 02:55:55;;;;;;;13.00;10.70;;;10.00;99.90;;;;;;5017335;28;20477;-63
2023/10/26 02:58:23;;;;;;;12.67;10.77;;;10.00;99.90;;;;;;5012531;28;20573;-65
2023/10/26 03:00:53;;;;;;;13.67;11.23;;;10.00;99.90;;;;;;5013991;28;20935;-63
2023/10/26 03:03:21;;;;;;;12.80;11.30;;;9.90;99.90;;;;;;5013778;28;20472;-64
2023/10/26 03:05:51;;;;;;;12.23;10.70;;;9.90;99.90;;;;;;5017644;28;20464;-64
2023/10/26 03:08:19;;;;;;;12.70;11.30;;;9.90;99.90;;;;;;5009984;28;20599;-64
2023/10/26 03:10:47;;;;;;;13.00;11.10;;;9.90;99.90;;;;;;5014563;28;21060;-64
2023/10/26 03:13:15;;;;;;;15.30;11.80;;;9.90;99.90;;;;;;5013070;28;21022;-63
2023/10/26 03:15:43;;;;;;;12.37;10.97;;;9.90;99.90;;;;;;5013840;28;20554;-63
2023/10/26 03:18:11;;;;;;;12.47;11.20;;;9.90;99.90;;;;;;5014171;28;20472;-63
2023/10/26 03:20:39;;;;;;;14.23;11.43;;;9.90;99.90;;;;;;5015909;28;20479;-64
2023/10/26 03:23:09;;;;;;;12.30;11.00;;;9.90;99.90;;;;;;5004100;28;20467;-64
2023/10/26 03:25:37;;;;;;;13.87;11.77;;;9.90;99.90;;;;;;5013069;28;20549;-64
2023/10/26 03:28:05;;;;;;;13.53;11.10;;;9.90;99.90;;;;;;5017593;28;21008;-63
2023/10/26 03:30:33;;;;;;;12.93;10.67;;;9.90;99.90;;;;;;5007755;28;20594;-64
2023/10/26 03:33:01;;;;;;;13.23;10.93;;;9.90;99.90;;;;;;5010512;28;20495;-63
2023/10/26 03:35:29;;;;;;;14.17;11.00;;;9.90;99.90;;;;;;5015881;28;20963;-63
2023/10/26 03:37:57;;;;;;;14.60;12.80;;;9.80;99.90;;;;;;5010843;28;20467;-64
2023/10/26 03:40:27;;;;;;;14.40;11.30;;;9.90;99.90;;;;;;5012921;28;20506;-63
2023/10/26 03:42:54;;;;;;;13.40;11.57;;;9.90;99.90;;;;;;5016321;28;20977;-64
2023/10/26 03:45:26;;;;;;;14.17;11.50;;;9.90;99.90;;;;;;5015283;28;20473;-64
2023/10/26 03:47:54;;;;;;;11.30;10.20;;;9.90;99.90;;;;;;5021029;28;20583;-63
2023/10/26 03:50:23;;;;;;;12.93;11.07;;;9.90;99.90;;;;;;5023124;28;20526;-64
2023/10/26 03:52:51;;;;;;;15.53;12.73;;;9.90;99.90;;;;;;5017228;28;21091;-64
2023/10/26 03:55:19;;;;;;;13.00;11.60;;;9.90;99.90;;;;;;5014097;28;23426;-64
2023/10/26 03:57:48;;;;;;;17.23;13.10;;;9.90;99.90;;;;;;5015732;28;20472;-64
2023/10/26 04:00:17;;;;;;;13.30;11.70;;;9.90;99.90;;;;;;5012193;28;20514;-63
2023/10/26 04:02:45;;;;;;;16.33;12.73;;;9.90;99.90;;;;;;5017422;28;20853;-63
2023/10/26 04:05:15;;;;;;;14.83;13.00;;;9.90;99.90;;;;;;5018681;28;20932;-64
2023/10/26 04:07:43;;;;;;;14.93;12.43;;;9.80;99.90;;;;;;5019007;28;20844;-64
2023/10/26 04:10:11;;;;;;;14.80;12.17;;;9.90;99.90;;;;;;5016131;28;20503;-63
2023/10/26 04:12:39;;;;;;;15.50;12.60;;;9.80;99.90;;;;;;5012275;28;20582;-64
2023/10/26 04:15:09;;;;;;;14.50;12.37;;;9.80;99.90;;;;;;5011109;28;20475;-63
2023/10/26 04:17:37;;;;;;;12.87;11.43;;;9.90;99.90;;;;;;5018363;28;20476;-64
2023/10/26 04:20:07;;;;;;;16.47;13.00;;;9.90;99.90;;;;;;5017504;28;20963;-63
2023/10/26 04:22:35;;;;;;;16.43;13.67;;;9.80;99.90;;;;;;5017633;28;20551;-63
2023/10/26 04:25:04;;;;;;;16.37;13.20;;;9.80;99.90;;;;;;5013650;28;20558;-63
2023/10/26 04:27:33;;;;;;;14.77;12.60;;;9.80;99.90;;;;;;5011029;28;20503;-64
2023/10/26 04:30:01;;;;;;;15.37;13.23;;;9.90;99.90;;;;;;5010838;28;20561;-63
2023/10/26 04:32:31;;;;;;;15.97;13.77;;;9.80;99.90;;;;;;5006452;28;20503;-63
2023/10/26 04:34:59;;;;;;;15.17;12.40;;;9.80;99.90;;;;;;5014562;28;20467;-64
2023/10/26 04:37:27;;;;;;;14.80;12.37;;;9.80;99.90;;;;;;5015541;28;20479;-63
2023/10/26 04:39:55;;;;;;;16.60;13.30;;;9.80;99.90;;;;;;5017111;28;20545;-64
2023/10/26 04:42:23;;;;;;;17.87;14.07;;;9.80;99.90;;;;;;5013905;28;20494;-64
2023/10/26 04:44:51;;;;;;;17.90;14.80;;;9.80;99.90;;;;;;5007131;28;20529;-63
2023/10/26 04:47:19;;;;;;;19.00;14.27;;;9.80;99.90;;;;;;5011377;28;20558;-64
2023/10/26 04:49:49;;;;;;;18.33;14.77;;;9.80;99.90;;;;;;5013032;28;20479;-63
2023/10/26 04:52:19;;;;;;;17.73;14.50;;;9.80;99.90;;;;;;5004715;28;20499;-64
2023/10/26 04:54:47;;;;;;;18.43;15.03;;;9.80;99.90;;;;;;5003914;28;20597;-64
2023/10/26 04:57:16;;;;;;;20.70;15.17;;;9.80;99.90;;;;;;5002651;28;21129;-64
2023/10/26 04:59:44;;;;;;;19.50;16.17;;;9.80;99.90;;;;;;5003768;28;20484;-64
2023/10/26 05:02:12;;;;;;;21.70;15.90;;;9.80;99.90;;;;;;5008324;28;20586;-64
2023/10/26 05:04:39;;;;;;;19.20;15.60;;;9.80;99.90;;;;;;5010030;28;21604;-64
2023/10/26 05:07:09;;;;;;;20.40;15.50;;;9.80;99.90;;;;;;5008993;28;20481;-63
2023/10/26 05:09:38;;;;;;;20.43;15.07;;;9.80;99.90;;;;;;5007222;28;20905;-65
2023/10/26 05:12:07;;;;;;;19.83;15.40;;;9.80;99.90;;;;;;5015753;28;20606;-65
2023/10/26 05:14:35;;;;;;;19.00;14.77;;;9.80;99.90;;;;;;5015733;28;20558;-65
2023/10/26 05:17:03;;;;;;;22.90;16.20;;;9.80;99.90;;;;;;5012906;28;20511;-65
2023/10/26 05:19:32;;;;;;;19.13;15.40;;;9.80;99.90;;;;;;4992951;28;20935;-65
2023/10/26 05:22:00;;;;;;;18.67;15.60;;;9.80;99.90;;;;;;5002625;28;20510;-65
2023/10/26 05:24:32;;;;;;;20.20;15.27;;;9.80;99.90;;;;;;5001242;28;20475;-64
2023/10/26 05:27:00;;;;;;;20.00;15.17;;;9.80;99.90;;;;;;5008987;28;20471;-65
2023/10/26 05:29:29;;;;;;;17.77;14.43;;;9.80;99.90;;;;;;5006549;28;20581;-64
2023/10/26 05:31:57;;;;;;;20.30;15.17;;;9.80;99.90;;;;;;5005117;28;20554;-64
2023/10/26 05:34:25;;;;;;;18.43;15.17;;;9.80;99.90;;;;;;5006829;28;20502;-65
2023/10/26 05:36:53;;;;;;;19.17;14.60;;;9.80;99.90;;;;;;5001208;28;20469;-65
2023/10/26 05:39:21;;;;;;;18.30;15.10;;;9.80;99.90;;;;;;5006796;28;20491;-65
2023/10/26 05:41:51;;;;;;;18.13;14.30;;;9.80;99.90;;;;;;5004485;28;20698;-65
2023/10/26 05:44:19;;;;;;;18.70;14.60;;;9.80;99.90;;;;;;5004633;28;20560;-64
2023/10/26 05:46:47;;;;;;;19.03;14.97;;;9.80;99.90;;;;;;5005280;28;20479;-65
2023/10/26 05:49:15;;;;;;;20.73;15.93;;;9.80;99.90;;;;;;5008449;28;20577;-64
2023/10/26 05:51:43;;;;;;;18.87;15.10;;;9.80;99.90;;;;;;5004117;28;20491;-66
2023/10/26 05:54:11;;;;;;;19.20;15.03;;;9.80;99.90;;;;;;5004977;28;20506;-65
2023/10/26 05:56:39;;;;;;;17.87;14.57;;;9.80;99.90;;;;;;5007897;28;20471;-66
2023/10/26 05:59:08;;;;;;;21.10;15.20;;;9.80;99.90;;;;;;5012143;28;20590;-65
2023/10/26 06:01:36;;;;;;;19.07;14.50;;;9.80;99.90;;;;;;5006482;28;20576;-65
2023/10/26 06:04:05;;;;;;;17.87;14.40;;;9.80;99.90;;;;;;5004357;28;20510;-65
2023/10/26 06:06:32;;;;;;;20.87;15.43;;;9.80;99.90;;;;;;5007082;28;20607;-65
2023/10/26 06:09:01;;;;;;;19.37;15.10;;;9.80;99.90;;;;;;5002541;28;20519;-65
2023/10/26 06:11:29;;;;;;;21.53;15.83;;;9.80;99.90;;;;;;5005664;28;21128;-65
2023/10/26 06:13:57;;;;;;;20.40;15.70;;;9.80;99.90;;;;;;5008444;28;20487;-64
2023/10/26 06:16:27;;;;;;;20.30;15.27;;;9.80;99.90;;;;;;5007427;28;20584;-65
2023/10/26 06:18:55;;;;;;;20.10;15.37;;;9.80;99.90;;;;;;4996913;28;20495;-65
2023/10/26 06:21:23;;;;;;;19.53;14.90;;;9.80;99.90;;;;;;5004274;28;20484;-65
2023/10/26 06:23:51;;;;;;;21.47;15.90;;;9.80;99.90;;;;;;5005791;28;20472;-66
2023/10/26 06:26:19;;;;;;;19.13;15.63;;;9.80;99.90;;;;;;5018126;28;20471;-65
2023/10/26 06:28:47;;;;;;;21.40;16.30;;;9.80;99.90;;;;;;5015907;28;20587;-65
2023/10/26 06:31:15;;;;;;;20.00;15.10;;;9.80;99.90;;;;;;5009213;28;20855;-65
2023/10/26 06:33:44;;;;;;;20.90;15.80;;;9.80;99.90;;;;;;5008980;28;20495;-65
2023/10/26 06:36:12;;;;;;;19.53;15.30;;;9.80;99.90;;;;;;5019632;28;20502;-65
2023/10/26 06:38:41;;;;;;;21.00;16.13;;;9.80;99.90;;;;;;5018303;28;20503;-65
2023/10/26 06:41:09;;;;;;;21.17;15.60;;;9.80;99.90;;;;;;5011849;28;20530;-65
2023/10/26 06:43:38;;;;;;;19.77;16.03;;;9.80;99.90;;;;;;5006801;28;20467;-65
2023/10/26 06:46:06;;;;;;;21.80;16.20;;;9.80;99.90;;;;;;5009478;28;20471;-66
2023/10/26 06:48:34;;;;;;;24.80;16.70;;;9.80;99.90;;;;;;5004868;28;20496;-65
2023/10/26 06:51:05;;;;;;;21.00;16.00;;;9.80;99.90;;;;;;5006005;28;20592;-65
2023/10/26 06:53:34;;;;;;;19.37;15.17;;;9.90;99.90;;;;;;5007645;28;20539;-65
2023/10/26 06:56:02;;;;;;;22.80;17.27;;;9.90;99.90;;;;;;5006634;28;20485;-65
2023/10/26 06:58:30;;;;;;;23.93;17.03;;;9.90;99.90;;;;;;5007058;28;20506;-65
2023/10/26 07:00:58;;;;;;;19.93;16.20;;;9.90;99.90;;;;;;5008048;28;20902;-64
2023/10/26 07:03:26;;;;;;;20.40;15.20;;;10.00;99.90;;;;;;5004375;28;20546;-65
2023/10/26 07:05:54;;;;;;;19.90;15.33;;;10.00;99.90;;;;;;5004960;28;20468;-65
2023/10/26 07:08:23;;;;;;;24.40;15.50;;;10.00;99.90;;;;;;5006530;28;20505;-65
2023/10/26 07:10:53;;;;;;;19.13;14.27;;;10.10;99.90;;;;;;5005352;28;20500;-65
2023/10/26 07:13:21;;;;;;;16.80;12.80;;;10.10;99.90;;;;;;5008111;28;20499;-65
2023/10/26 07:15:49;;;;;;;19.73;13.47;;;10.10;99.90;;;;;;5006301;28;20620;-65
2023/10/26 07:18:19;;;;;;;19.67;13.93;;;10.10;99.90;;;;;;5010011;28;20548;-65
2023/10/26 07:20:48;;;;;;;19.23;13.77;;;10.10;99.90;;;;;;5011086;28;20491;-65
2023/10/26 07:23:17;;;;;;;18.27;14.00;;;10.20;99.90;;;;;;5009088;28;21017;-65
2023/10/26 07:25:47;;;;;;;17.40;13.23;;;10.20;99.90;;;;;;5005643;28;20471;-65
2023/10/26 07:28:18;;;;;;;18.23;12.50;;;10.20;99.90;;;;;;5008486;28;20479;-66
2023/10/26 07:30:50;;;;;;;16.77;12.37;;;10.30;99.90;;;;;;5011030;28;20494;-65
2023/10/26 07:33:19;;;;;;;14.30;11.37;;;10.30;99.90;;;;;;5011091;28;20472;-65
2023/10/26 07:35:52;;;;;;;16.50;12.17;;;10.40;99.90;;;;;;5012020;28;20557;-65
2023/10/26 07:38:20;;;;;;;13.33;11.90;;;10.40;99.90;;;;;;5011572;28;20479;-65
2023/10/26 07:41:05;;;;;;;15.80;12.10;;;10.50;99.90;;;;;;5007374;28;20502;-65
2023/10/26 07:43:53;;;;;;;13.70;11.20;;;10.50;99.90;;;;;;5009625;28;20455;-64
2023/10/26 07:46:21;;;;;;;15.67;11.57;;;10.60;99.90;;;;;;5009586;28;20476;-65
2023/10/26 07:48:49;;;;;;;14.00;11.60;;;10.60;99.90;;;;;;5009187;28;20487;-65
2023/10/26 07:51:18;;;;;;;14.27;11.00;;;10.60;99.90;;;;;;5004071;28;20494;-65
2023/10/26 07:53:46;;;;;;;14.80;11.50;;;10.70;99.90;;;;;;5011495;28;20482;-65
2023/10/26 07:56:16;;;;;;;13.20;10.80;;;10.70;99.90;;;;;;5012566;28;22013;-65
2023/10/26 07:58:44;;;;;;;13.33;10.63;;;10.70;99.90;;;;;;5008061;28;20644;-65
2023/10/26 08:01:12;;;;;;;15.00;10.77;;;10.80;99.90;;;;;;5012630;28;20487;-64
2023/10/26 08:03:41;;;;;;;12.10;10.07;;;10.80;99.90;;;;;;5009229;28;20476;-64
2023/10/26 08:06:10;;;;;;;13.87;10.80;;;10.80;99.90;;;;;;5010225;28;20915;-64
2023/10/26 08:08:38;;;;;;;12.97;10.17;;;10.80;99.90;;;;;;5007857;28;20890;-64
2023/10/26 08:11:10;;;;;;;12.97;10.27;;;10.80;99.90;;;;;;5010588;28;20671;-64
2023/10/26 08:13:40;;;;;;;13.73;11.30;;;10.80;99.90;;;;;;5008076;28;20488;-64
2023/10/26 08:16:08;;;;;;;13.33;10.50;;;10.80;99.90;;;;;;5008867;28;22126;-64
2023/10/26 08:18:56;;;;;;;13.03;10.27;;;10.90;99.90;;;;;;5013214;28;20475;-64
2023/10/26 08:21:24;;;;;;;11.83;10.40;;;10.90;99.90;;;;;;5008838;28;20491;-64
2023/10/26 08:23:52;;;;;;;12.20;10.47;;;10.90;99.90;;;;;;5010191;28;20472;-64
2023/10/26 08:26:20;;;;;;;11.17;9.87;;;11.00;99.90;;;;;;5017225;28;20492;-64
2023/10/26 08:28:49;;;;;;;11.10;9.70;;;11.00;99.90;;;;;;5018725;28;20593;-64
2023/10/26 08:31:20;;;;;;;11.83;9.67;;;11.00;99.90;;;;;;5009478;28;20484;-64
2023/10/26 08:33:48;;;;;;;10.03;9.03;;;11.00;99.90;;;;;;5012978;28;20478;-65
2023/10/26 08:36:16;;;;;;;13.20;10.17;;;11.00;99.90;;;;;;5003120;28;20563;-64
2023/10/26 08:38:44;;;;;;;12.07;10.13;;;11.10;99.90;;;;;;5006378;28;21183;-64
2023/10/26 08:41:13;;;;;;;11.30;9.47;;;11.10;99.90;;;;;;5009225;28;20480;-64
2023/10/26 08:43:44;;;;;;;11.17;9.40;;;11.10;99.90;;;;;;5011549;28;20537;-66
2023/10/26 08:46:17;;;;;;;9.83;8.80;;;11.20;99.90;;;;;;5008220;28;20467;-68
2023/10/26 08:48:47;;;;;;;11.03;9.10;;;11.20;99.90;;;;;;5010943;28;20581;-65
2023/10/26 08:51:15;;;;;;;10.07;8.77;;;11.20;99.90;;;;;;5009458;28;21015;-65
2023/10/26 08:53:43;;;;;;;10.87;9.10;;;11.20;99.90;;;;;;5007311;28;20583;-63
2023/10/26 08:56:11;;;;;;;9.07;8.20;;;11.20;99.90;;;;;;5005560;28;20639;-62
2023/10/26 08:58:40;;;;;;;10.10;8.70;;;11.20;99.90;;;;;;5009491;28;20923;-62
2023/10/26 09:01:08;;;;;;;9.40;8.40;;;11.20;99.90;;;;;;5007055;28;22416;-62
2023/10/26 09:03:37;;;;;;;8.43;7.57;;;11.20;99.90;;;;;;5011345;28;20557;-62
2023/10/26 09:06:06;;;;;;;9.53;8.23;;;11.20;99.90;;;;;;5008450;28;20470;-62
2023/10/26 09:08:34;;;;;;;8.90;7.60;;;11.20;99.90;;;;;;5008396;28;20494;-62
2023/10/26 09:11:10;;;;;;;9.60;8.63;;;11.20;99.90;;;;;;5006140;28;20549;-62
2023/10/26 09:13:38;;;;;;;9.57;7.77;;;11.20;99.90;;;;;;5008895;28;20980;-62
2023/10/26 09:16:06;;;;;;;9.17;7.10;;;11.20;99.90;;;;;;5010304;28;20495;-62
2023/10/26 09:18:35;;;;;;;8.80;7.00;;;11.20;99.90;;;;;;5012935;28;20499;-62
2023/10/26 09:21:07;;;;;;;9.83;7.60;;;11.30;99.90;;;;;;5013254;28;20492;-62
2023/10/26 09:23:37;;;;;;;8.60;7.57;;;11.30;99.90;;;;;;5017945;28;20562;-62
2023/10/26 09:26:07;;;;;;;8.60;7.40;;;11.40;99.90;;;;;;5011350;28;20467;-62
2023/10/26 09:28:52;;;;;;;9.13;7.27;;;11.40;99.90;;;;;;5016290;28;20507;-62
2023/10/26 09:31:20;;;;;;;8.27;7.47;;;11.50;99.90;;;;;;5012842;28;22049;-62
2023/10/26 09:33:49;;;;;;;7.60;6.60;;;11.50;99.90;;;;;;5017053;28;20474;-62
2023/10/26 09:36:21;;;;;;;6.70;6.03;;;11.50;99.90;;;;;;5012803;28;20500;-62
2023/10/26 09:38:49;;;;;;;6.43;5.73;;;11.70;99.90;;;;;;5014212;28;20587;-62
2023/10/26 09:41:18;;;;;;;6.77;5.70;;;11.70;99.90;;;;;;5013771;28;20515;-62
2023/10/26 09:43:47;;;;;;;6.03;5.17;;;11.80;99.90;;;;;;5006614;28;20471;-63
2023/10/26 09:46:17;;;;;;;5.83;5.27;;;11.80;99.90;;;;;;5009915;28;20548;-62
2023/10/26 09:48:46;;;;;;;6.10;5.20;;;11.90;99.90;;;;;;5007956;28;20487;-62
2023/10/26 09:51:15;;;;;;;5.33;4.70;;;12.00;99.90;;;;;;5009751;28;20553;-62
2023/10/26 09:53:46;;;;;;;4.73;4.33;;;12.10;99.90;;;;;;5000845;28;20467;-61
2023/10/26 09:56:25;;;;;;;5.87;3.90;;;12.10;99.90;;;;;;5005986;28;20581;-61
2023/10/26 09:58:54;;;;;;;5.13;4.40;;;12.20;99.90;;;;;;5008203;28;20556;-60
2023/10/26 10:01:32;;;;;;;5.10;4.00;;;12.30;99.90;;;;;;5001905;28;20492;-61
2023/10/26 10:04:00;;;;;;;9.40;4.80;;;12.30;99.90;;;;;;5006296;28;21025;-61
2023/10/26 10:06:49;;;;;;;11.70;4.87;;;12.40;99.90;;;;;;5009222;28;20475;-61
2023/10/26 10:09:21;;;;;;;4.43;3.70;;;12.40;99.90;;;;;;5015462;28;21048;-60
2023/10/26 10:12:27;;;;;;;4.77;4.30;;;12.40;99.90;;;;;;5014526;28;20988;-60
2023/10/26 10:14:57;;;;;;;7.00;3.93;;;12.40;99.90;;;;;;5013014;28;20471;-60
2023/10/26 10:18:05;;;;;;;3.97;3.67;;;12.30;99.90;;;;;;5014148;28;20977;-59
2023/10/26 10:20:35;;;;;;;4.03;3.50;;;12.30;99.90;;;;;;5013973;28;20518;-60
2023/10/26 10:23:04;;;;;;;4.13;3.73;;;12.30;99.90;;;;;;5016753;28;20482;-61
2023/10/26 10:26:00;;;;;;;5.33;3.50;;;12.30;99.90;;;;;;5014204;28;20554;-61
2023/10/26 10:28:51;;;;;;;3.67;3.37;;;12.30;99.90;;;;;;5017612;28;20551;-60
2023/10/26 10:31:43;;;;;;;7.27;5.17;;;12.20;99.90;;;;;;5009404;28;21092;-61
2023/10/26 10:34:16;;;;;;;5.43;3.80;;;12.20;99.90;;;;;;4997544;28;20475;-61
2023/10/26 10:37:10;;;;;;;3.33;3.03;;;12.20;99.90;;;;;;5005196;28;20499;-60
2023/10/26 10:39:38;;;;;;;3.53;3.10;;;12.20;99.90;;;;;;5002709;28;20543;-60
2023/10/26 10:42:12;;;;;;;4.20;3.03;;;12.20;99.90;;;;;;5011189;28;20496;-61
2023/10/26 10:44:41;;;;;;;3.30;3.00;;;12.20;99.90;;;;;;5006510;28;20981;-60
2023/10/26 10:47:10;;;;;;;3.60;2.90;;;12.20;99.90;;;;;;5005583;28;20463;-64
2023/10/26 10:49:38;;;;;;;3.00;2.80;;;12.20;99.90;;;;;;5009159;28;20487;-60
2023/10/26 10:52:13;;;;;;;4.53;3.33;;;12.20;99.90;;;;;;5011203;28;20523;-59
2023/10/26 10:54:49;;;;;;;3.90;3.43;;;12.20;99.90;;;;;;5010929;28;20532;-61
2023/10/26 10:57:33;;;;;;;5.30;3.23;;;12.30;99.90;;;;;;5013467;28;20595;-60
2023/10/26 11:00:01;;;;;;;3.60;3.30;;;12.20;99.90;;;;;;5012818;28;22757;-60
2023/10/26 11:02:29;;;;;;;4.30;3.10;;;12.20;99.90;;;;;;5011202;28;21068;-60
2023/10/26 11:04:59;;;;;;;3.90;3.50;;;12.30;99.90;;;;;;5010555;28;20475;-64
2023/10/26 11:07:45;;;;;;;2.97;2.77;;;12.30;99.90;;;;;;5015251;28;20587;-64
2023/10/26 11:10:13;;;;;;;3.53;3.23;;;12.30;99.90;;;;;;5011594;28;20660;-64
2023/10/26 11:12:50;;;;;;;3.37;3.07;;;12.30;99.90;;;;;;5012938;28;20467;-65
2023/10/26 11:15:18;;;;;;;3.33;3.03;;;12.30;99.90;;;;;;5010442;28;20482;-65
2023/10/26 11:17:47;;;;;;;5.20;2.70;;;12.30;99.90;;;;;;5008662;28;20557;-62
2023/10/26 11:20:36;;;;;;;3.90;3.53;;;12.30;99.90;;;;;;5006156;28;20960;-64
2023/10/26 11:23:04;;;;;;;3.67;3.30;;;12.20;99.90;;;;;;5010815;28;20475;-63
2023/10/26 11:25:32;;;;;;;3.43;3.13;;;12.30;99.90;;;;;;5013845;28;20557;-62
2023/10/26 11:28:02;;;;;;;3.60;3.30;;;12.20;99.90;;;;;;5012282;28;20558;-65
2023/10/26 11:30:31;;;;;;;3.90;3.60;;;12.20;99.90;;;;;;5010227;28;20484;-65
2023/10/26 11:32:59;;;;;;;4.80;4.30;;;12.20;99.90;;;;;;5010314;28;20467;-64
2023/10/26 11:35:27;;;;;;;4.23;3.83;;;12.20;99.90;;;;;;5009246;28;20610;-64
2023/10/26 11:37:56;;;;;;;3.60;3.30;;;12.10;99.90;;;;;;5007629;28;21210;-65
2023/10/26 11:40:30;;;;;;;3.90;3.50;;;12.10;99.90;;;;;;5011135;28;20500;-63
2023/10/26 11:43:00;;;;;;;3.40;3.10;;;12.10;99.90;;;;;;5010968;28;20575;-64
2023/10/26 11:45:31;;;;;;;3.90;3.43;;;12.10;99.90;;;;;;5007288;28;20464;-64
2023/10/26 11:48:00;;;;;;;4.00;3.60;;;12.10;99.90;;;;;;5012188;28;20490;-64
2023/10/26 11:50:30;;;;;;;4.43;3.43;;;12.10;99.90;;;;;;5009420;28;20864;-65
2023/10/26 11:53:00;;;;;;;3.20;2.90;;;12.20;99.90;;;;;;5009838;28;20471;-62
2023/10/26 11:55:30;;;;;;;4.60;3.40;;;12.30;99.90;;;;;;5009258;28;20591;-64
2023/10/26 11:57:59;;;;;;;3.50;3.10;;;12.50;99.90;;;;;;5007691;28;20492;-68
2023/10/26 12:00:30;;;;;;;3.17;2.97;;;12.50;99.90;;;;;;5012339;28;20496;-65
2023/10/26 12:03:00;;;;;;;3.27;2.97;;;12.50;99.90;;;;;;5010894;28;21268;-64
2023/10/26 12:05:28;;;;;;;3.30;2.70;;;12.50;99.90;;;;;;5007466;28;20997;-67
2023/10/26 12:07:56;;;;;;;3.10;2.57;;;12.50;99.90;;;;;;5007874;28;20478;-64
2023/10/26 12:10:25;;;;;;;3.17;2.90;;;12.40;99.90;;;;;;5007528;28;20492;-63
2023/10/26 12:12:53;;;;;;;3.10;2.80;;;12.40;99.90;;;;;;5009937;28;20487;-64
2023/10/26 12:15:22;;;;;;;3.20;3.00;;;12.40;99.90;;;;;;5017414;28;20549;-63
2023/10/26 12:17:51;;;;;;;2.97;2.77;;;12.40;99.90;;;;;;5012716;28;20586;-62
2023/10/26 12:20:19;;;;;;;3.33;3.13;;;12.40;99.90;;;;;;5010452;28;20506;-63
2023/10/26 12:22:48;;;;;;;3.50;2.77;;;12.50;99.90;;;;;;5006900;28;20483;-62
2023/10/26 12:25:16;;;;;;;3.20;2.93;;;12.50;99.90;;;;;;5015203;28;20712;-64
2023/10/26 12:27:45;;;;;;;2.50;2.30;;;12.70;99.90;;;;;;5016426;28;20539;-65
2023/10/26 12:30:33;;;;;;;2.70;2.50;;;12.90;99.90;;;;;;5000460;28;22835;-65
2023/10/26 12:33:03;;;;;;;2.87;2.67;;;13.00;99.90;;;;;;5003083;28;20479;-64
2023/10/26 12:35:31;;;;;;;2.47;2.27;;;13.10;99.90;;;;;;5014908;28;20500;-65
2023/10/26 12:37:59;;;;;;;2.43;2.23;;;13.10;99.90;;;;;;5009168;28;20491;-64
2023/10/26 12:40:27;;;;;;;3.00;2.50;;;13.10;99.90;;;;;;5007264;28;20826;-64
2023/10/26 12:42:55;;;;;;;2.10;2.00;;;13.00;99.90;;;;;;5006545;28;20467;-63
2023/10/26 12:45:23;;;;;;;3.00;2.40;;;12.90;99.90;;;;;;5007879;28;20475;-62
2023/10/26 12:47:51;;;;;;;2.33;2.10;;;12.90;99.90;;;;;;5007086;28;20471;-63
2023/10/26 12:50:21;;;;;;;2.50;2.27;;;12.90;99.90;;;;;;5012060;28;20488;-63